Time;durP1;ratioP1;P1;durP2;ratioP2;P2;SDS_P1;SDS_P2;PMS_P1;PMS_P2;Temp;Humidity;BMP_temperature;BMP_pressure;BME280_temperature;BME280_humidity;BME280_pressure;Samples;Min_cycle;Max_cycle;Signal;HPM_P1;HPM_P2
2023/10/17 00:00:39;;;;;;;;;;;;;;;20.81;39.46;101584.44;103162;1288;61402;-81
2023/10/17 00:03:11;;;;;;;;;;;;;;;20.82;39.44;101585.31;103100;1289;61757;-81
2023/10/17 00:05:36;;;;;;;;;;;;;;;20.81;39.52;101585.70;102847;1289;71388;-82
2023/10/17 00:08:05;;;;;;;;;;;;;;;20.82;39.33;101586.88;103059;1292;61466;-81
2023/10/17 00:10:40;;;;;;;;;;;;;;;20.82;39.45;101589.07;103100;1291;61371;-82
2023/10/17 00:16:12;;;;;;;;;;;;;;;20.81;39.40;101586.77;102534;1298;73463;-81
2023/10/17 00:18:38;;;;;;;;;;;;;;;20.81;39.43;101586.59;102568;1296;75702;-82
2023/10/17 00:21:37;;;;;;;;;;;;;;;20.81;39.30;101588.21;102572;1296;61842;-81
2023/10/17 00:23:59;;;;;;;;;;;;;;;20.80;39.36;101579.10;102567;1297;61418;-80
2023/10/17 00:26:25;;;;;;;;;;;;;;;20.81;39.51;101577.48;102599;1297;73246;-81
2023/10/17 00:29:16;;;;;;;;;;;;;;;20.80;39.50;101571.05;102564;1297;61637;-81
2023/10/17 00:31:44;;;;;;;;;;;;;;;20.81;39.37;101570.86;102265;1300;61518;-80
2023/10/17 00:34:24;;;;;;;;;;;;;;;20.80;39.28;101571.07;102227;1297;61393;-80
2023/10/17 00:36:49;;;;;;;;;;;;;;;20.80;39.44;101572.66;102285;1298;73491;-81
2023/10/17 00:39:31;;;;;;;;;;;;;;;20.81;39.43;101570.87;102256;1298;61630;-81
2023/10/17 00:44:46;;;;;;;;;;;;;;;20.80;39.36;101564.27;102278;1298;61305;-81
2023/10/17 00:47:13;;;;;;;;;;;;;;;20.80;39.32;101564.08;102272;1298;72307;-80
2023/10/17 00:49:44;;;;;;;;;;;;;;;20.80;39.37;101567.86;102283;1303;61298;-80
2023/10/17 00:52:24;;;;;;;;;;;;;;;20.80;39.40;101569.49;102588;1295;61843;-81
2023/10/17 00:54:51;;;;;;;;;;;;;;;20.80;39.39;101566.27;102728;1294;61469;-80
2023/10/17 00:57:17;;;;;;;;;;;;;;;20.79;39.47;101564.52;102629;1295;73764;-79
2023/10/17 00:59:49;;;;;;;;;;;;;;;20.80;39.38;101559.48;102619;1295;74295;-80
2023/10/17 01:02:15;;;;;;;;;;;;;;;20.80;39.31;101562.90;102600;1294;61462;-81
2023/10/17 01:04:44;;;;;;;;;;;;;;;20.80;39.46;101558.96;102620;1295;61562;-80
2023/10/17 01:07:23;;;;;;;;;;;;;;;20.79;39.45;101560.04;102573;1297;72526;-81
2023/10/17 01:09:51;;;;;;;;;;;;;;;20.79;39.50;101561.11;102755;1291;74436;-81
2023/10/17 01:12:20;;;;;;;;;;;;;;;20.80;39.43;101560.75;103153;1291;61392;-81
2023/10/17 01:14:46;;;;;;;;;;;;;;;20.79;39.42;101553.45;103163;1288;62640;-80
2023/10/17 01:17:18;;;;;;;;;;;;;;;20.79;39.28;101554.70;103153;1289;61469;-80
2023/10/17 01:19:44;;;;;;;;;;;;;;;20.79;39.42;101556.51;103113;1288;74458;-81
2023/10/17 01:22:10;;;;;;;;;;;;;;;20.79;39.21;101554.89;103125;1291;62339;-82
2023/10/17 01:24:35;;;;;;;;;;;;;;;20.79;39.25;101552.58;103149;1292;61401;-81
2023/10/17 01:27:06;;;;;;;;;;;;;;;20.78;39.28;101548.30;102846;1291;62211;-81
2023/10/17 01:29:32;;;;;;;;;;;;;;;20.78;39.38;101546.86;103096;1291;74493;-81
2023/10/17 01:31:59;;;;;;;;;;;;;;;20.78;39.24;101543.83;103130;1288;61462;-81
2023/10/17 01:34:24;;;;;;;;;;;;;;;20.78;39.20;101546.86;103103;1287;61719;-81
2023/10/17 01:36:50;;;;;;;;;;;;;;;20.78;39.19;101544.21;103075;1291;61754;-81
2023/10/17 01:39:16;;;;;;;;;;;;;;;20.78;39.19;101546.53;103086;1291;61834;-81
2023/10/17 01:41:46;;;;;;;;;;;;;;;20.78;39.12;101546.53;103129;1291;61340;-81
2023/10/17 01:44:12;;;;;;;;;;;;;;;20.78;39.21;101547.77;103107;1288;62442;-80
2023/10/17 01:46:38;;;;;;;;;;;;;;;20.77;39.10;101548.88;103098;1291;61374;-81
2023/10/17 01:49:10;;;;;;;;;;;;;;;20.78;39.22;101548.31;103144;1291;61831;-80
2023/10/17 01:51:36;;;;;;;;;;;;;;;20.77;39.22;101548.52;103179;1289;61424;-82
2023/10/17 01:54:07;;;;;;;;;;;;;;;20.77;39.14;101550.33;103114;1288;61419;-81
2023/10/17 01:56:32;;;;;;;;;;;;;;;20.76;39.19;101549.11;102834;1291;72285;-81
2023/10/17 01:59:09;;;;;;;;;;;;;;;20.76;39.14;101546.97;103083;1293;61390;-81
2023/10/17 02:01:36;;;;;;;;;;;;;;;20.76;39.17;101550.35;103164;1289;61283;-82
2023/10/17 02:04:05;;;;;;;;;;;;;;;20.77;39.07;101555.71;102851;1291;61385;-79
2023/10/17 02:06:32;;;;;;;;;;;;;;;20.76;39.05;101552.52;103132;1291;73488;-80
2023/10/17 02:09:09;;;;;;;;;;;;;;;20.76;39.20;101549.12;103129;1291;74137;-83
2023/10/17 02:11:43;;;;;;;;;;;;;;;20.76;39.11;101548.94;103128;1290;61305;-81
2023/10/17 02:14:10;;;;;;;;;;;;;;;20.76;39.14;101547.48;103108;1289;62653;-80
2023/10/17 02:16:36;;;;;;;;;;;;;;;20.76;39.02;101544.83;103115;1290;72544;-81
2023/10/17 02:19:08;;;;;;;;;;;;;;;20.76;39.13;101544.83;102894;1293;62557;-81
2023/10/17 02:21:50;;;;;;;;;;;;;;;;;;;;;
2023/10/17 02:24:21;;;;;;;;;;;;;;;20.76;39.16;101548.07;102940;1289;61326;-82
2023/10/17 02:26:56;;;;;;;;;;;;;;;20.76;39.09;101549.84;103071;1290;72566;-80
2023/10/17 02:29:29;;;;;;;;;;;;;;;20.75;39.09;101550.09;103098;1289;75243;-81
2023/10/17 02:32:12;;;;;;;;;;;;;;;20.75;39.03;101553.27;103098;1293;61418;-81
2023/10/17 02:34:37;;;;;;;;;;;;;;;20.76;39.05;101550.59;103110;1291;61980;-80
2023/10/17 02:37:04;;;;;;;;;;;;;;;20.76;39.01;101548.98;102819;1293;61305;-81
2023/10/17 02:39:29;;;;;;;;;;;;;;;20.75;38.96;101548.44;103163;1291;61441;-81
2023/10/17 02:42:06;;;;;;;;;;;;;;;20.75;39.15;101548.80;103124;1291;62450;-81
2023/10/17 02:44:32;;;;;;;;;;;;;;;20.75;39.00;101550.79;103169;1288;61630;-81
2023/10/17 02:46:58;;;;;;;;;;;;;;;20.75;39.13;101554.03;103140;1292;61327;-84
2023/10/17 02:49:26;;;;;;;;;;;;;;;20.75;38.92;101557.05;103085;1293;61685;-81
2023/10/17 02:51:54;;;;;;;;;;;;;;;20.75;38.95;101557.61;103206;1291;61367;-81
2023/10/17 02:54:20;;;;;;;;;;;;;;;20.75;39.10;101562.98;103169;1290;61350;-81
2023/10/17 02:56:46;;;;;;;;;;;;;;;20.74;38.98;101565.30;103136;1291;62578;-81
2023/10/17 02:59:12;;;;;;;;;;;;;;;20.75;38.96;101566.56;103092;1291;61384;-80
2023/10/17 03:01:38;;;;;;;;;;;;;;;20.74;38.95;101564.05;103158;1293;62097;-80
2023/10/17 03:04:08;;;;;;;;;;;;;;;20.74;39.06;101560.69;103139;1290;61402;-80
2023/10/17 03:06:39;;;;;;;;;;;;;;;20.74;38.96;101563.92;103124;1294;73164;-80
2023/10/17 03:09:16;;;;;;;;;;;;;;;20.74;39.02;101562.14;103134;1289;74494;-81
2023/10/17 03:12:07;;;;;;;;;;;;;;;;;;;;;
2023/10/17 03:15:38;;;;;;;;;;;;;;;20.74;38.94;101562.14;103144;1293;61424;-80
2023/10/17 03:17:28;;;;;;;;;;;;;;;20.73;38.93;101558.94;102988;1293;72522;-81
2023/10/17 03:19:57;;;;;;;;;;;;;;;20.73;38.88;101558.05;103130;1291;62280;-81
2023/10/17 03:22:27;;;;;;;;;;;;;;;20.73;38.76;101557.88;103101;1291;61411;-80
2023/10/17 03:25:01;;;;;;;;;;;;;;;20.73;38.84;101556.81;103126;1291;62290;-81
2023/10/17 03:27:34;;;;;;;;;;;;;;;20.74;38.98;101554.82;103157;1293;72345;-82
2023/10/17 03:30:08;;;;;;;;;;;;;;;20.73;38.87;101555.77;103127;1290;74466;-81
2023/10/17 03:32:34;;;;;;;;;;;;;;;20.73;38.82;101556.10;103110;1293;62381;-80
2023/10/17 03:35:02;;;;;;;;;;;;;;;20.73;38.85;101558.80;103106;1291;61406;-83
2023/10/17 03:37:28;;;;;;;;;;;;;;;20.73;38.90;101562.36;103213;1293;72292;-82
2023/10/17 03:43:12;;;;;;;;;;;;;;;20.72;38.94;101560.26;102565;1295;61370;-82
2023/10/17 03:45:43;;;;;;;;;;;;;;;20.72;38.95;101558.45;102677;1297;61696;-80
2023/10/17 03:48:15;;;;;;;;;;;;;;;20.73;38.92;101559.88;102430;1298;72560;-81
2023/10/17 03:53:15;;;;;;;;;;;;;;;20.72;38.86;101562.77;102812;1292;61930;-81
2023/10/17 03:55:42;;;;;;;;;;;;;;;20.73;38.83;101562.38;102787;1294;61391;-81
2023/10/17 04:00:51;;;;;;;;;;;;;;;20.72;38.94;101561.71;102755;1292;75512;-82
2023/10/17 04:03:35;;;;;;;;;;;;;;;;;;;;;
2023/10/17 04:06:18;;;;;;;;;;;;;;;20.70;38.78;101554.11;102760;1292;61333;-81
2023/10/17 04:08:56;;;;;;;;;;;;;;;20.69;38.77;101548.60;102843;1292;72417;-81
2023/10/17 04:13:51;;;;;;;;;;;;;;;20.69;38.67;101550.96;102809;1297;61581;-81
2023/10/17 04:16:33;;;;;;;;;;;;;;;20.69;38.78;101551.88;102757;1296;61301;-81
2023/10/17 04:19:16;;;;;;;;;;;;;;;20.68;38.70;101554.39;102776;1292;72552;-81
2023/10/17 04:21:49;;;;;;;;;;;;;;;20.67;38.66;101553.55;103256;1291;74503;-81
2023/10/17 04:24:26;;;;;;;;;;;;;;;20.63;38.75;101557.04;103264;1287;61338;-81
2023/10/17 04:27:05;;;;;;;;;;;;;;;20.61;38.62;101561.04;103200;1286;61363;-83
2023/10/17 04:29:32;;;;;;;;;;;;;;;20.59;38.51;101562.59;103409;1289;72515;-82
2023/10/17 04:31:57;;;;;;;;;;;;;;;20.55;38.47;101561.91;103541;1286;61319;-81
2023/10/17 04:34:26;;;;;;;;;;;;;;;20.53;38.32;101560.27;103399;1286;63279;-80
2023/10/17 04:36:53;;;;;;;;;;;;;;;20.50;38.36;101558.46;103505;1291;61764;-81
2023/10/17 04:39:19;;;;;;;;;;;;;;;20.49;38.35;101557.41;103404;1288;73048;-82
2023/10/17 04:44:55;;;;;;;;;;;;;;;20.49;38.37;101569.27;103064;1294;61484;-80
2023/10/17 04:49:50;;;;;;;;;;;;;;;20.46;38.41;101575.83;103249;1299;61584;-82
2023/10/17 04:52:21;;;;;;;;;;;;;;;20.45;38.24;101575.54;103640;1293;75209;-81
2023/10/17 04:55:01;;;;;;;;;;;;;;;20.43;38.27;101577.44;103816;1296;61199;-83
2023/10/17 04:57:55;;;;;;;;;;;;;;;20.40;38.26;101577.94;103834;1294;61433;-82
2023/10/17 05:00:25;;;;;;;;;;;;;;;20.38;38.20;101577.34;103951;1297;72436;-82
2023/10/17 05:08:49;;;;;;;;;;;;;;;20.27;38.18;101583.86;103982;1294;61352;-80
2023/10/17 06:17:27;;;;;;;;;;;;;;;20.27;37.67;101624.45;104851;1288;72475;-82
2023/10/17 06:19:53;;;;;;;;;;;;;;;20.25;37.67;101624.90;104893;1291;74276;-82
2023/10/17 06:30:28;;;;;;;;;;;;;;;20.19;37.48;101626.10;105099;1288;75334;-82
2023/10/17 06:35:55;;;;;;;;;;;;;;;20.19;37.37;101625.09;104747;1288;59700;-82
2023/10/17 06:38:36;;;;;;;;;;;;;;;20.19;37.26;101623.30;105007;1293;72319;-80
2023/10/17 06:41:14;;;;;;;;;;;;;;;20.22;37.19;101620.81;104500;1292;74504;-81
2023/10/17 06:43:46;;;;;;;;;;;;;;;20.25;37.20;101624.92;104744;1289;61190;-82
2023/10/17 06:46:14;;;;;;;;;;;;;;;20.26;37.22;101624.33;104841;1286;61732;-81
2023/10/17 06:48:49;;;;;;;;;;;;;;;20.27;37.18;101623.91;104436;1289;72580;-81
2023/10/17 06:53:52;;;;;;;;;;;;;;;20.22;37.13;101619.52;104607;1287;61083;-80
2023/10/17 06:56:17;;;;;;;;;;;;;;;19.99;36.90;101624.72;104706;1287;61360;-81
2023/10/17 06:58:44;;;;;;;;;;;;;;;19.77;37.27;101626.04;104957;1292;61297;-80
2023/10/17 07:01:25;;;;;;;;;;;;;;;19.62;37.47;101630.92;104871;1289;60466;-80
2023/10/17 07:03:54;;;;;;;;;;;;;;;19.67;37.70;101632.61;105020;1292;61337;-80
2023/10/17 07:06:24;;;;;;;;;;;;;;;19.74;37.79;101637.08;104900;1292;61255;-81
2023/10/17 07:08:51;;;;;;;;;;;;;;;19.70;37.64;101636.35;104937;1286;72497;-81
2023/10/17 07:16:57;;;;;;;;;;;;;;;19.07;37.67;101643.67;104468;1301;61149;-81
2023/10/17 07:22:04;;;;;;;;;;;;;;;18.90;37.77;101636.98;103744;1300;61520;-80
2023/10/17 07:24:34;;;;;;;;;;;;;;;18.88;37.50;101635.09;104033;1300;61557;-80
2023/10/17 07:27:03;;;;;;;;;;;;;;;18.86;37.54;101635.20;103929;1302;61267;-80
2023/10/17 07:29:33;;;;;;;;;;;;;;;18.80;37.46;101634.98;103467;1298;72043;-81
2023/10/17 07:32:09;;;;;;;;;;;;;;;18.79;37.50;101632.52;103292;1301;73636;-81
2023/10/17 07:34:36;;;;;;;;;;;;;;;18.86;37.38;101634.65;103359;1296;61434;-81
2023/10/17 07:39:59;;;;;;;;;;;;;;;18.94;37.41;101629.70;103969;1296;72493;-81
2023/10/17 07:42:30;;;;;;;;;;;;;;;18.90;37.39;101624.86;103723;1298;75465;-81
2023/10/17 07:45:01;;;;;;;;;;;;;;;18.91;37.52;101626.23;104069;1298;61300;-82
2023/10/17 07:47:33;;;;;;;;;;;;;;;18.99;37.42;101619.98;103968;1299;61631;-81
2023/10/17 07:50:00;;;;;;;;;;;;;;;19.06;37.42;101619.80;104031;1297;71471;-80
2023/10/17 07:52:26;;;;;;;;;;;;;;;19.10;37.36;101623.54;104562;1298;74315;-82
2023/10/17 07:57:40;;;;;;;;;;;;;;;19.05;37.61;101623.59;105219;1287;60670;-83
2023/10/17 08:02:55;;;;;;;;;;;;;;;18.93;37.67;101622.56;105229;1286;77051;-81
2023/10/17 08:05:23;;;;;;;;;;;;;;;18.85;37.65;101617.58;104860;1286;61342;-82
2023/10/17 08:07:49;;;;;;;;;;;;;;;18.82;37.79;101615.26;105048;1289;61390;-82
2023/10/17 08:10:29;;;;;;;;;;;;;;;18.79;37.84;101616.98;105020;1286;61134;-81
2023/10/17 08:12:57;;;;;;;;;;;;;;;18.86;37.88;101611.52;104993;1292;75457;-82
2023/10/17 08:15:29;;;;;;;;;;;;;;;18.93;37.81;101615.27;106309;1286;61074;-82
2023/10/17 08:17:58;;;;;;;;;;;;;;;18.99;37.72;101617.69;106100;1286;60138;-82
2023/10/17 08:20:45;;;;;;;;;;;;;;;19.00;37.63;101615.29;106121;1286;73463;-82
2023/10/17 08:23:11;;;;;;;;;;;;;;;18.86;37.48;101610.41;106233;1289;75954;-81
2023/10/17 08:25:52;;;;;;;;;;;;;;;18.85;37.65;101610.30;106271;1288;59904;-81
2023/10/17 08:28:34;;;;;;;;;;;;;;;18.97;37.67;101609.54;106113;1286;60531;-82
2023/10/17 08:31:17;;;;;;;;;;;;;;;19.08;37.39;101611.66;106233;1289;72409;-81
2023/10/17 08:33:44;;;;;;;;;;;;;;;19.14;37.46;101612.80;106321;1287;74624;-82
2023/10/17 08:36:10;;;;;;;;;;;;;;;19.12;37.22;101619.52;106135;1288;59679;-82
2023/10/17 08:38:39;;;;;;;;;;;;;;;19.05;36.94;101619.34;106191;1288;59892;-83
2023/10/17 08:41:06;;;;;;;;;;;;;;;19.03;37.03;101621.38;106192;1287;73662;-82
2023/10/17 08:43:32;;;;;;;;;;;;;;;19.10;37.14;101619.09;106072;1292;59181;-82
2023/10/17 08:45:58;;;;;;;;;;;;;;;19.19;37.14;101616.67;105898;1289;61326;-81
2023/10/17 08:48:24;;;;;;;;;;;;;;;19.28;37.04;101618.20;104735;1288;61311;-82
2023/10/17 08:50:53;;;;;;;;;;;;;;;19.33;36.94;101616.14;104722;1290;61453;-81
2023/10/17 08:53:23;;;;;;;;;;;;;;;19.31;36.91;101613.02;105224;1288;75426;-81
2023/10/17 08:55:50;;;;;;;;;;;;;;;19.33;37.12;101612.04;106196;1288;59719;-82
2023/10/17 08:58:17;;;;;;;;;;;;;;;19.32;36.82;101614.63;106018;1288;59462;-82
2023/10/17 09:03:20;;;;;;;;;;;;;;;19.34;37.10;101607.69;106196;1286;73469;-81
2023/10/17 09:05:58;;;;;;;;;;;;;;;19.24;37.07;101606.94;105252;1288;59368;-82
2023/10/17 09:08:41;;;;;;;;;;;;;;;19.06;37.04;101601.60;105167;1288;61205;-81
2023/10/17 09:11:08;;;;;;;;;;;;;;;18.87;36.96;101602.16;105043;1287;72290;-81
2023/10/17 09:16:10;;;;;;;;;;;;;;;18.64;37.14;101595.59;105203;1286;61328;-81
2023/10/17 09:18:42;;;;;;;;;;;;;;;18.56;37.21;101590.27;105138;1288;61514;-81
2023/10/17 09:21:08;;;;;;;;;;;;;;;18.50;37.19;101590.77;105053;1292;73449;-82
2023/10/17 09:23:36;;;;;;;;;;;;;;;18.40;37.10;101589.24;104840;1288;74491;-81
2023/10/17 09:26:07;;;;;;;;;;;;;;;18.34;37.17;101585.81;105958;1287;60489;-83
2023/10/17 09:28:33;;;;;;;;;;;;;;;18.29;37.19;101587.09;106177;1286;59960;-80
2023/10/17 09:31:00;;;;;;;;;;;;;;;18.23;37.24;101585.95;106251;1287;59747;-82
2023/10/17 09:33:27;;;;;;;;;;;;;;;18.22;37.40;101579.60;106115;1289;75404;-81
2023/10/17 09:35:54;;;;;;;;;;;;;;;18.38;37.57;101581.69;106130;1286;60755;-81
2023/10/17 09:38:20;;;;;;;;;;;;;;;18.57;37.54;101574.55;106158;1288;61363;-81
2023/10/17 09:40:49;;;;;;;;;;;;;;;18.70;37.59;101570.69;106072;1288;59322;-81
2023/10/17 09:43:15;;;;;;;;;;;;;;;18.76;37.45;101569.15;106069;1288;74651;-81
2023/10/17 09:45:41;;;;;;;;;;;;;;;18.82;37.44;101568.00;106061;1289;59126;-80
2023/10/17 09:48:07;;;;;;;;;;;;;;;18.90;37.37;101572.96;106229;1287;59830;-81
2023/10/17 09:50:34;;;;;;;;;;;;;;;18.89;37.27;101572.67;106260;1287;58833;-81
2023/10/17 09:52:59;;;;;;;;;;;;;;;18.91;37.14;101570.77;106165;1288;59239;-81
2023/10/17 09:55:25;;;;;;;;;;;;;;;18.96;37.15;101568.91;104459;1288;61395;-80
2023/10/17 09:57:55;;;;;;;;;;;;;;;18.99;36.90;101561.48;104878;1289;59263;-81
2023/10/17 10:00:27;;;;;;;;;;;;;;;18.97;36.88;101558.02;104784;1288;72534;-80
2023/10/17 10:02:54;;;;;;;;;;;;;;;18.83;36.66;101550.61;106120;1287;74449;-82
2023/10/17 10:05:20;;;;;;;;;;;;;;;18.75;36.52;101550.85;105306;1288;59734;-82
2023/10/17 10:07:46;;;;;;;;;;;;;;;18.72;36.58;101541.52;105052;1288;59380;-81
2023/10/17 10:10:41;;;;;;;;;;;;;;;18.70;36.43;101538.81;105150;1287;61175;-81
2023/10/17 10:13:08;;;;;;;;;;;;;;;18.68;36.43;101527.15;104897;1293;74578;-81
2023/10/17 10:15:48;;;;;;;;;;;;;;;18.71;36.45;101524.84;104880;1288;61612;-81
2023/10/17 10:18:14;;;;;;;;;;;;;;;18.79;36.54;101523.70;105026;1288;62021;-81
2023/10/17 10:20:57;;;;;;;;;;;;;;;18.84;36.59;101522.25;105367;1288;60012;-81
2023/10/17 10:23:35;;;;;;;;;;;;;;;18.90;36.60;101512.30;105292;1286;75909;-82
2023/10/17 10:26:14;;;;;;;;;;;;;;;18.94;36.58;101509.62;105148;1286;59973;-81
2023/10/17 10:28:39;;;;;;;;;;;;;;;18.87;36.38;101504.77;105321;1286;61190;-83
2023/10/17 10:31:29;;;;;;;;;;;;;;;18.87;36.47;101499.25;106287;1286;59742;-82
2023/10/17 10:33:55;;;;;;;;;;;;;;;18.89;36.38;101491.32;106271;1286;74364;-81
2023/10/17 10:36:24;;;;;;;;;;;;;;;18.92;36.47;101493.67;106317;1287;59274;-82
2023/10/17 10:38:50;;;;;;;;;;;;;;;18.95;36.25;101494.79;106118;1286;60365;-81
2023/10/17 10:41:15;;;;;;;;;;;;;;;18.89;36.08;101493.97;106315;1286;59185;-81
2023/10/17 10:43:41;;;;;;;;;;;;;;;18.80;36.09;101488.36;106101;1288;59417;-82
2023/10/17 10:46:11;;;;;;;;;;;;;;;18.81;36.11;101485.11;106256;1286;59671;-81
2023/10/17 10:48:38;;;;;;;;;;;;;;;18.78;35.80;101480.44;106193;1288;61415;-81
2023/10/17 10:51:04;;;;;;;;;;;;;;;18.82;35.81;101479.52;106320;1288;72513;-82
2023/10/17 10:53:36;;;;;;;;;;;;;;;18.89;35.95;101475.98;105258;1288;74508;-81
2023/10/17 10:56:13;;;;;;;;;;;;;;;18.94;35.95;101472.51;104779;1286;61120;-81
2023/10/17 10:58:51;;;;;;;;;;;;;;;18.93;35.72;101478.80;104794;1288;61588;-81
2023/10/17 11:01:18;;;;;;;;;;;;;;;18.88;35.60;101477.64;104802;1288;73382;-80
2023/10/17 11:03:46;;;;;;;;;;;;;;;18.80;35.33;101475.69;105169;1286;74481;-81
2023/10/17 11:06:12;;;;;;;;;;;;;;;18.78;35.34;101474.38;105302;1288;59710;-81
2023/10/17 11:08:39;;;;;;;;;;;;;;;18.88;35.49;101471.36;105548;1287;59940;-83
2023/10/17 11:11:05;;;;;;;;;;;;;;;18.99;35.35;101469.08;106127;1290;59467;-82
2023/10/17 11:13:36;;;;;;;;;;;;;;;19.01;35.17;101462.19;106078;1286;59372;-82
2023/10/17 11:16:01;;;;;;;;;;;;;;;19.00;35.15;101454.55;106107;1286;60374;-82
2023/10/17 11:18:28;;;;;;;;;;;;;;;19.08;35.27;101451.33;106171;1286;59567;-81
2023/10/17 11:20:54;;;;;;;;;;;;;;;19.16;35.48;101443.58;105996;1286;58993;-82
2023/10/17 11:23:19;;;;;;;;;;;;;;;19.25;35.43;101441.67;106027;1288;59044;-81
2023/10/17 11:25:45;;;;;;;;;;;;;;;19.33;35.58;101432.31;105408;1286;61330;-81
2023/10/17 11:28:11;;;;;;;;;;;;;;;19.40;35.36;101424.06;104825;1288;60407;-81
2023/10/17 11:30:40;;;;;;;;;;;;;;;19.47;35.13;101420.67;104968;1286;61301;-81
2023/10/17 11:33:10;;;;;;;;;;;;;;;19.51;35.18;101415.09;104709;1288;72688;-81
2023/10/17 11:35:46;;;;;;;;;;;;;;;19.55;35.00;101410.58;104751;1287;76015;-81
2023/10/17 11:38:22;;;;;;;;;;;;;;;19.59;35.05;101410.73;104696;1288;61368;-81
2023/10/17 11:40:48;;;;;;;;;;;;;;;19.54;34.56;101404.74;104715;1288;60268;-81
2023/10/17 11:43:17;;;;;;;;;;;;;;;19.52;34.80;101394.50;104851;1286;61316;-81
2023/10/17 11:45:44;;;;;;;;;;;;;;;19.49;34.51;101390.90;104838;1286;75805;-82
2023/10/17 11:48:26;;;;;;;;;;;;;;;19.44;34.36;101392.63;104682;1286;61243;-81
2023/10/17 11:51:07;;;;;;;;;;;;;;;19.42;34.34;101385.55;104923;1286;61179;-81
2023/10/17 11:53:32;;;;;;;;;;;;;;;19.37;34.16;101378.73;105017;1290;72426;-82
2023/10/17 11:55:58;;;;;;;;;;;;;;;19.37;34.01;101371.05;105009;1286;61433;-82
2023/10/17 11:58:29;;;;;;;;;;;;;;;19.36;33.90;101369.83;105024;1288;59476;-80
2023/10/17 12:00:57;;;;;;;;;;;;;;;19.35;33.85;101369.20;105128;1290;61286;-82
2023/10/17 12:03:26;;;;;;;;;;;;;;;19.31;33.76;101370.48;105223;1289;73749;-81
2023/10/17 12:05:51;;;;;;;;;;;;;;;19.24;33.62;101364.79;105203;1288;73528;-81
2023/10/17 12:08:23;;;;;;;;;;;;;;;19.19;33.59;101362.20;105280;1287;61254;-81
2023/10/17 12:10:53;;;;;;;;;;;;;;;19.08;33.47;101366.19;104888;1288;61316;-80
2023/10/17 12:13:19;;;;;;;;;;;;;;;19.08;33.59;101371.91;105115;1292;72746;-81
2023/10/17 12:15:46;;;;;;;;;;;;;;;19.01;33.27;101374.60;105403;1290;74491;-81
2023/10/17 12:18:12;;;;;;;;;;;;;;;19.03;33.54;101373.96;105074;1288;61827;-81
2023/10/17 12:20:41;;;;;;;;;;;;;;;19.11;33.71;101363.91;104954;1288;61534;-81
2023/10/17 12:23:18;;;;;;;;;;;;;;;19.19;33.90;101354.67;105440;1288;72399;-82
2023/10/17 12:25:44;;;;;;;;;;;;;;;19.30;34.31;101351.96;105319;1288;74915;-81
2023/10/17 12:28:10;;;;;;;;;;;;;;;19.36;34.12;101346.09;105042;1288;61132;-81
2023/10/17 12:30:41;;;;;;;;;;;;;;;19.45;34.32;101344.56;105005;1290;59881;-82
2023/10/17 12:33:08;;;;;;;;;;;;;;;19.53;34.19;101346.59;105057;1286;71793;-80
2023/10/17 12:35:34;;;;;;;;;;;;;;;19.57;34.04;101349.75;105900;1287;74403;-81
2023/10/17 12:38:06;;;;;;;;;;;;;;;19.53;34.00;101346.40;104794;1287;61351;-79
2023/10/17 12:40:31;;;;;;;;;;;;;;;19.56;34.19;101346.95;104839;1287;61399;-81
2023/10/17 12:42:57;;;;;;;;;;;;;;;19.62;34.13;101345.20;104634;1287;61237;-81
2023/10/17 12:45:22;;;;;;;;;;;;;;;19.68;34.27;101345.23;104886;1288;61411;-81
2023/10/17 12:47:48;;;;;;;;;;;;;;;19.73;34.26;101344.94;104528;1288;61401;-82
2023/10/17 12:50:14;;;;;;;;;;;;;;;19.78;34.20;101344.11;104735;1292;59679;-80
2023/10/17 12:52:39;;;;;;;;;;;;;;;19.82;34.25;101335.87;104678;1288;61228;-81
2023/10/17 12:55:05;;;;;;;;;;;;;;;19.86;34.29;101336.91;104642;1288;61395;-80
2023/10/17 12:57:31;;;;;;;;;;;;;;;19.91;34.44;101340.38;104615;1293;62563;-81
2023/10/17 12:59:59;;;;;;;;;;;;;;;19.94;34.35;101338.61;104473;1287;59724;-81
2023/10/17 13:02:31;;;;;;;;;;;;;;;19.97;34.38;101332.67;104933;1288;59989;-81
2023/10/17 13:04:58;;;;;;;;;;;;;;;19.89;34.05;101327.95;105057;1288;73673;-82
2023/10/17 13:07:23;;;;;;;;;;;;;;;19.81;33.99;101327.00;106043;1287;73792;-82
2023/10/17 13:09:49;;;;;;;;;;;;;;;19.70;33.69;101324.75;105968;1287;60351;-82
2023/10/17 13:12:14;;;;;;;;;;;;;;;19.54;33.62;101327.80;105803;1291;60027;-82
2023/10/17 13:14:40;;;;;;;;;;;;;;;19.45;33.72;101325.09;104764;1288;59405;-82
2023/10/17 13:17:09;;;;;;;;;;;;;;;19.46;33.80;101322.92;104903;1288;61420;-82
2023/10/17 13:19:39;;;;;;;;;;;;;;;19.52;33.77;101325.08;104864;1287;75459;-81
2023/10/17 13:22:08;;;;;;;;;;;;;;;19.58;33.88;101326.85;104421;1287;61334;-80
2023/10/17 13:24:34;;;;;;;;;;;;;;;19.63;33.90;101328.05;104327;1288;61270;-80
2023/10/17 13:27:00;;;;;;;;;;;;;;;19.61;33.70;101326.70;104533;1287;61295;-81
2023/10/17 13:29:26;;;;;;;;;;;;;;;19.63;33.90;101326.43;103909;1288;61350;-83
2023/10/17 13:31:52;;;;;;;;;;;;;;;19.61;33.64;101327.44;104190;1286;61377;-82
2023/10/17 13:34:22;;;;;;;;;;;;;;;19.60;33.51;101333.73;104017;1287;61376;-82
2023/10/17 13:36:48;;;;;;;;;;;;;;;19.60;33.54;101336.92;103682;1288;72300;-82
2023/10/17 13:39:13;;;;;;;;;;;;;;;19.50;33.41;101334.29;103874;1288;61447;-83
2023/10/17 13:41:41;;;;;;;;;;;;;;;19.46;33.48;101334.16;104175;1288;61413;-82
2023/10/17 13:44:11;;;;;;;;;;;;;;;19.47;33.48;101333.20;104178;1287;61249;-83
2023/10/17 13:46:36;;;;;;;;;;;;;;;19.43;33.44;101335.17;103801;1287;72346;-82
2023/10/17 13:49:02;;;;;;;;;;;;;;;19.45;33.59;101335.46;104020;1287;61705;-82
2023/10/17 13:51:34;;;;;;;;;;;;;;;19.47;33.59;101334.96;103898;1288;61477;-82
2023/10/17 13:53:59;;;;;;;;;;;;;;;19.41;33.33;101332.62;103943;1287;61388;-82
2023/10/17 13:56:25;;;;;;;;;;;;;;;19.41;33.55;101330.66;104098;1289;61978;-82
2023/10/17 13:58:51;;;;;;;;;;;;;;;19.46;33.57;101325.05;104296;1288;64795;-83
2023/10/17 14:01:27;;;;;;;;;;;;;;;19.50;33.62;101324.30;104453;1288;61433;-83
2023/10/17 14:03:56;;;;;;;;;;;;;;;19.50;33.54;101317.66;104828;1288;61255;-82
2023/10/17 14:06:22;;;;;;;;;;;;;;;19.45;33.32;101312.98;104490;1286;72494;-82
2023/10/17 14:08:47;;;;;;;;;;;;;;;19.41;33.36;101310.50;104628;1288;59343;-83
2023/10/17 14:11:17;;;;;;;;;;;;;;;19.37;33.37;101307.33;104750;1288;61449;-82
2023/10/17 14:13:54;;;;;;;;;;;;;;;19.24;33.39;101308.23;104685;1288;60301;-82
2023/10/17 14:16:22;;;;;;;;;;;;;;;19.19;33.34;101306.90;104231;1287;72724;-82
2023/10/17 14:19:03;;;;;;;;;;;;;;;19.15;33.29;101307.11;104059;1288;75340;-82
2023/10/17 14:24:06;;;;;;;;;;;;;;;19.13;33.17;101307.74;104106;1291;61386;-82
2023/10/17 14:26:33;;;;;;;;;;;;;;;19.11;33.27;101305.02;104247;1287;73360;-82
2023/10/17 14:29:00;;;;;;;;;;;;;;;19.09;33.09;101302.95;103980;1288;59652;-82
2023/10/17 14:31:26;;;;;;;;;;;;;;;19.05;33.32;101300.36;104309;1288;61393;-81
2023/10/17 14:33:55;;;;;;;;;;;;;;;19.08;33.30;101296.23;103986;1288;61290;-80
2023/10/17 14:36:21;;;;;;;;;;;;;;;19.15;33.36;101291.58;104360;1287;72419;-81
2023/10/17 14:38:48;;;;;;;;;;;;;;;19.21;33.36;101296.98;104509;1289;61269;-81
2023/10/17 14:41:14;;;;;;;;;;;;;;;19.24;33.28;101301.59;106361;1287;59952;-81
2023/10/17 14:43:46;;;;;;;;;;;;;;;19.25;33.23;101301.35;103895;1288;61357;-83
2023/10/17 14:46:12;;;;;;;;;;;;;;;19.21;33.13;101299.30;103816;1293;72698;-80
2023/10/17 14:48:37;;;;;;;;;;;;;;;19.23;33.19;101297.02;103754;1288;61421;-80
2023/10/17 14:51:03;;;;;;;;;;;;;;;19.25;33.29;101297.77;103792;1288;62689;-81
2023/10/17 14:53:29;;;;;;;;;;;;;;;19.28;33.25;101297.46;103821;1287;62571;-82
2023/10/17 14:55:56;;;;;;;;;;;;;;;19.29;33.02;101297.05;103972;1288;61307;-79